createdAt,value
2017-12-17T00:00:12.440Z,978.2
2017-12-17T00:01:15.372Z,978.2
2017-12-17T00:02:18.140Z,978.1
2017-12-17T00:03:20.797Z,978.1
2017-12-17T00:04:23.258Z,978.3
2017-12-17T00:05:25.779Z,978.2
2017-12-17T00:06:28.305Z,978.3
2017-12-17T00:07:31.070Z,978.4
2017-12-17T00:08:33.656Z,978.3
2017-12-17T00:09:36.186Z,978.3
2017-12-17T00:10:38.686Z,978.3
2017-12-17T00:11:41.298Z,978.3
2017-12-17T00:12:43.714Z,978.2
2017-12-17T00:13:46.257Z,978.4
2017-12-17T00:14:48.922Z,978.3
2017-12-17T00:15:51.520Z,978.3
2017-12-17T00:16:53.979Z,978.4
2017-12-17T00:17:56.550Z,978.3
2017-12-17T00:18:59.202Z,978.4
2017-12-17T00:20:01.722Z,978.3
2017-12-17T00:21:04.273Z,978.4
2017-12-17T00:22:06.766Z,978.4
2017-12-17T00:23:09.289Z,978.4
2017-12-17T00:24:11.876Z,978.4
2017-12-17T00:25:14.266Z,978.4
2017-12-17T00:26:17.451Z,978.3
2017-12-17T00:27:19.915Z,978.4
2017-12-17T00:28:22.519Z,978.2
2017-12-17T00:29:25.062Z,978.4
2017-12-17T00:30:27.685Z,978.3
2017-12-17T00:31:30.198Z,978.4
2017-12-17T00:32:32.670Z,978.4
2017-12-17T00:33:35.107Z,978.4
2017-12-17T00:34:37.556Z,978.4
2017-12-17T00:35:40.565Z,978.4
2017-12-17T00:36:43.163Z,978.5
2017-12-17T00:37:45.679Z,978.4
2017-12-17T00:38:48.161Z,978.4
2017-12-17T00:39:50.756Z,978.4
2017-12-17T00:40:53.283Z,978.4
2017-12-17T00:41:55.779Z,978.4
2017-12-17T00:42:58.345Z,978.4
2017-12-17T00:44:01.130Z,978.4
2017-12-17T00:45:03.692Z,978.4
2017-12-17T00:46:06.271Z,978.5
2017-12-17T00:47:09.646Z,978.5
2017-12-17T00:48:12.080Z,978.5
2017-12-17T00:49:14.648Z,978.5
2017-12-17T00:50:17.037Z,978.4
2017-12-17T00:51:19.480Z,978.5
2017-12-17T00:52:22.176Z,978.5
2017-12-17T00:53:24.827Z,978.5
2017-12-17T00:54:27.365Z,978.5
2017-12-17T00:55:29.946Z,978.5
2017-12-17T00:56:32.467Z,978.5
2017-12-17T00:57:34.999Z,978.5
2017-12-17T00:58:37.437Z,978.5
2017-12-17T00:59:40.056Z,978.5
2017-12-17T01:00:42.555Z,978.6
2017-12-17T01:01:45.017Z,978.5
2017-12-17T01:02:47.534Z,978.6
2017-12-17T01:03:50.204Z,978.5
2017-12-17T01:04:52.718Z,978.7
2017-12-17T01:05:55.209Z,978.7
2017-12-17T01:06:57.740Z,978.6
2017-12-17T01:08:00.357Z,978.5
2017-12-17T01:09:02.883Z,978.5
2017-12-17T01:10:05.530Z,978.7
2017-12-17T01:11:08.058Z,978.6
2017-12-17T01:12:10.715Z,978.6
2017-12-17T01:13:13.149Z,978.6
2017-12-17T01:14:15.824Z,978.6
2017-12-17T01:15:18.451Z,978.7
2017-12-17T01:16:20.994Z,978.7
2017-12-17T01:17:23.443Z,978.8
2017-12-17T01:18:26.118Z,978.8
2017-12-17T01:19:28.573Z,978.8
2017-12-17T01:20:31.140Z,978.8
2017-12-17T01:21:33.628Z,978.8
2017-12-17T01:22:36.171Z,978.9
2017-12-17T01:23:38.699Z,979
2017-12-17T01:24:41.251Z,979
2017-12-17T01:25:43.693Z,978.9
2017-12-17T01:26:46.186Z,979
2017-12-17T01:27:48.642Z,979
2017-12-17T01:28:51.262Z,979.1
2017-12-17T01:29:53.757Z,979.1
2017-12-17T01:30:56.316Z,979.1
2017-12-17T01:31:58.895Z,979.1
2017-12-17T01:33:01.425Z,979.1
2017-12-17T01:34:04.020Z,979.2
2017-12-17T01:35:06.504Z,979.1
2017-12-17T01:36:08.985Z,979.2
2017-12-17T01:37:11.633Z,979.1
2017-12-17T01:38:14.824Z,979.2
2017-12-17T01:39:17.437Z,979.2
2017-12-17T01:40:19.940Z,979.2
2017-12-17T01:41:22.535Z,979.2
2017-12-17T01:42:25.075Z,979.2
2017-12-17T01:43:27.609Z,979.2
2017-12-17T01:44:30.129Z,979.2
2017-12-17T01:45:32.702Z,979.3
2017-12-17T01:46:35.197Z,979.2
2017-12-17T01:47:37.730Z,979.3
2017-12-17T01:48:40.169Z,979.3
2017-12-17T01:49:43.103Z,979.2
2017-12-17T01:50:45.642Z,979.4
2017-12-17T01:51:48.209Z,979.3
2017-12-17T01:52:50.668Z,979.4
2017-12-17T01:53:53.224Z,979.4
2017-12-17T01:54:55.735Z,979.4
2017-12-17T01:55:58.331Z,979.4
2017-12-17T01:57:00.906Z,979.4
2017-12-17T01:58:03.555Z,979.4
2017-12-17T01:59:06.070Z,979.4
2017-12-17T02:00:08.648Z,979.6
2017-12-17T02:01:11.142Z,979.5
2017-12-17T02:02:13.615Z,979.4
2017-12-17T02:03:16.093Z,979.5
2017-12-17T02:04:18.545Z,979.5
2017-12-17T02:05:21.078Z,979.4
2017-12-17T02:06:23.601Z,979.4
2017-12-17T02:07:26.045Z,979.5
2017-12-17T02:08:28.600Z,979.5
2017-12-17T02:09:31.062Z,979.4
2017-12-17T02:10:33.611Z,979.5
2017-12-17T02:11:36.055Z,979.5
2017-12-17T02:12:38.583Z,979.6
2017-12-17T02:13:41.067Z,979.6
2017-12-17T02:14:43.510Z,979.6
2017-12-17T02:15:45.966Z,979.5
2017-12-17T02:16:48.540Z,979.5
2017-12-17T02:17:50.999Z,979.5
2017-12-17T02:18:53.492Z,979.5
2017-12-17T02:19:55.969Z,979.5
2017-12-17T02:20:58.488Z,979.4
2017-12-17T02:22:00.999Z,979.4
2017-12-17T02:23:03.468Z,979.5
2017-12-17T02:24:05.889Z,979.5
2017-12-17T02:25:08.356Z,979.5
2017-12-17T02:26:10.882Z,979.5
2017-12-17T02:27:13.362Z,979.5
2017-12-17T02:28:15.867Z,979.5
2017-12-17T02:29:18.563Z,979.4
2017-12-17T02:30:21.127Z,979.4
2017-12-17T02:31:23.799Z,979.4
2017-12-17T02:32:26.283Z,979.5
2017-12-17T02:33:29.539Z,979.3
2017-12-17T02:34:32.004Z,979.5
2017-12-17T02:35:34.490Z,979.5
2017-12-17T02:36:36.932Z,979.5
2017-12-17T02:37:39.531Z,979.6
2017-12-17T02:38:42.053Z,979.6
2017-12-17T02:39:44.425Z,979.5
2017-12-17T02:40:46.943Z,979.5
2017-12-17T02:41:49.451Z,979.5
2017-12-17T02:42:52.054Z,979.6
2017-12-17T02:43:54.435Z,979.5
2017-12-17T02:44:56.898Z,979.5
2017-12-17T02:45:59.331Z,979.6
2017-12-17T02:47:01.866Z,979.5
2017-12-17T02:48:04.318Z,979.6
2017-12-17T02:49:06.777Z,979.5
2017-12-17T02:50:09.198Z,979.7
2017-12-17T02:51:11.686Z,979.6
2017-12-17T02:52:14.304Z,979.7
2017-12-17T02:53:16.880Z,979.6
2017-12-17T02:54:19.406Z,979.6
2017-12-17T02:55:21.840Z,979.6
2017-12-17T02:56:24.372Z,979.6
2017-12-17T02:57:26.864Z,979.6
2017-12-17T02:58:29.366Z,979.7
2017-12-17T02:59:31.862Z,979.7
2017-12-17T03:00:34.584Z,979.7
2017-12-17T03:01:37.015Z,979.7
2017-12-17T03:02:39.429Z,979.7
2017-12-17T03:03:41.896Z,979.7
2017-12-17T03:04:44.439Z,979.6
2017-12-17T03:05:46.925Z,979.7
2017-12-17T03:06:49.537Z,979.5
2017-12-17T03:07:51.968Z,979.7
2017-12-17T03:08:54.470Z,979.6
2017-12-17T03:09:56.878Z,979.6
2017-12-17T03:10:59.456Z,979.6
2017-12-17T03:12:01.970Z,979.7
2017-12-17T03:13:04.789Z,979.7
2017-12-17T03:14:07.220Z,979.6
2017-12-17T03:15:09.802Z,979.7
2017-12-17T03:16:12.370Z,979.5
2017-12-17T03:17:14.808Z,979.6
2017-12-17T03:18:17.253Z,979.7
2017-12-17T03:19:21.342Z,979.6
2017-12-17T03:20:23.819Z,979.7
2017-12-17T03:21:26.235Z,979.7
2017-12-17T03:22:28.710Z,979.8
2017-12-17T03:23:31.187Z,979.7
2017-12-17T03:24:33.650Z,979.8
2017-12-17T03:25:36.123Z,979.8
2017-12-17T03:26:38.502Z,979.7
2017-12-17T03:27:40.986Z,979.7
2017-12-17T03:28:43.388Z,979.7
2017-12-17T03:29:45.768Z,979.8
2017-12-17T03:30:48.232Z,979.8
2017-12-17T03:31:50.992Z,979.8
2017-12-17T03:32:53.498Z,979.8
2017-12-17T03:33:55.986Z,979.8
2017-12-17T03:34:58.455Z,979.8
2017-12-17T03:36:00.991Z,979.8
2017-12-17T03:37:03.405Z,979.8
2017-12-17T03:38:05.791Z,979.9
2017-12-17T03:39:08.261Z,979.8
2017-12-17T03:40:10.752Z,979.9
2017-12-17T03:41:13.232Z,979.8
2017-12-17T03:42:15.648Z,979.8
2017-12-17T03:43:18.127Z,979.9
2017-12-17T03:44:20.572Z,979.9
2017-12-17T03:45:22.987Z,979.9
2017-12-17T03:46:25.468Z,979.8
2017-12-17T03:47:27.942Z,979.9
2017-12-17T03:48:30.383Z,979.9
2017-12-17T03:49:32.916Z,979.9
2017-12-17T03:50:35.335Z,980
2017-12-17T03:51:37.882Z,980
2017-12-17T03:52:40.335Z,979.9
2017-12-17T03:53:42.910Z,979.8
2017-12-17T03:54:45.367Z,979.9
2017-12-17T03:55:47.914Z,980
2017-12-17T03:56:50.319Z,980
2017-12-17T03:57:52.705Z,980
2017-12-17T03:58:55.250Z,980
2017-12-17T03:59:57.789Z,980
2017-12-17T04:01:00.327Z,980
2017-12-17T04:02:02.964Z,980.1
2017-12-17T04:03:05.704Z,980
2017-12-17T04:04:08.170Z,980.2
2017-12-17T04:05:10.636Z,980.1
2017-12-17T04:06:13.229Z,980.1
2017-12-17T04:07:15.698Z,980.1
2017-12-17T04:08:18.096Z,980.2
2017-12-17T04:09:20.499Z,980.2
2017-12-17T04:10:22.953Z,980.2
2017-12-17T04:11:25.396Z,980.2
2017-12-17T04:12:27.780Z,980.3
2017-12-17T04:13:30.206Z,980.3
2017-12-17T04:14:33.088Z,980.3
2017-12-17T04:15:35.507Z,980.3
2017-12-17T04:16:38.003Z,980.2
2017-12-17T04:17:40.416Z,980.3
2017-12-17T04:18:42.904Z,980.2
2017-12-17T04:19:45.392Z,980.3
2017-12-17T04:20:47.801Z,980.4
2017-12-17T04:21:50.343Z,980.4
2017-12-17T04:22:53.231Z,980.1
2017-12-17T04:23:55.607Z,980.4
2017-12-17T04:24:58.010Z,980.4
2017-12-17T04:26:00.519Z,980.4
2017-12-17T04:27:03.008Z,980.4
2017-12-17T04:28:08.701Z,980.4
2017-12-17T04:29:11.150Z,980.4
2017-12-17T04:30:13.596Z,980.3
2017-12-17T04:31:17.746Z,980.4
2017-12-17T04:32:20.234Z,980.3
2017-12-17T04:33:23.495Z,980.4
2017-12-17T04:34:26.322Z,980.4
2017-12-17T04:35:28.773Z,980.4
2017-12-17T04:36:31.242Z,980.4
2017-12-17T04:37:33.675Z,980.4
2017-12-17T04:38:36.046Z,980.5
2017-12-17T04:39:38.518Z,980.5
2017-12-17T04:40:41.128Z,980.4
2017-12-17T04:41:43.606Z,980.5
2017-12-17T04:42:46.073Z,980.5
2017-12-17T04:43:48.578Z,980.4
2017-12-17T04:44:51.102Z,980.5
2017-12-17T04:45:53.582Z,980.4
2017-12-17T04:46:56.025Z,980.5
2017-12-17T04:47:58.575Z,980.5
2017-12-17T04:49:01.004Z,980.5
2017-12-17T04:50:03.484Z,980.6
2017-12-17T04:51:05.924Z,980.5
2017-12-17T04:52:08.388Z,980.5
2017-12-17T04:53:10.849Z,980.3
2017-12-17T04:54:13.283Z,980.6
2017-12-17T04:55:15.707Z,980.6
2017-12-17T04:56:18.165Z,980.6
2017-12-17T04:57:20.628Z,980.6
2017-12-17T04:58:23.141Z,980.6
2017-12-17T04:59:25.602Z,980.6
2017-12-17T05:00:28.085Z,980.7
2017-12-17T05:01:30.510Z,980.7
2017-12-17T05:02:32.996Z,980.7
2017-12-17T05:03:35.453Z,980.7
2017-12-17T05:04:37.948Z,980.7
2017-12-17T05:05:40.682Z,980.7
2017-12-17T05:06:43.114Z,980.7
2017-12-17T05:07:45.556Z,980.8
2017-12-17T05:08:48.085Z,980.7
2017-12-17T05:09:50.558Z,980.6
2017-12-17T05:10:53.019Z,980.7
2017-12-17T05:11:55.541Z,980.7
2017-12-17T05:12:58.016Z,980.7
2017-12-17T05:14:00.605Z,980.7
2017-12-17T05:15:03.133Z,980.8
2017-12-17T05:16:05.573Z,980.8
2017-12-17T05:17:08.109Z,980.8
2017-12-17T05:18:10.635Z,980.7
2017-12-17T05:19:13.556Z,980.7
2017-12-17T05:20:16.042Z,980.8
2017-12-17T05:21:19.620Z,980.8
2017-12-17T05:22:22.084Z,980.8
2017-12-17T05:23:24.543Z,980.9
2017-12-17T05:24:26.984Z,980.9
2017-12-17T05:25:29.449Z,980.8
2017-12-17T05:26:31.855Z,980.7
2017-12-17T05:27:34.329Z,980.8
2017-12-17T05:28:37.013Z,980.8
2017-12-17T05:29:39.410Z,980.7
2017-12-17T05:30:41.847Z,980.8
2017-12-17T05:31:44.248Z,980.8
2017-12-17T05:32:49.963Z,980.7
2017-12-17T05:33:52.589Z,980.8
2017-12-17T05:34:54.973Z,980.9
2017-12-17T05:35:57.449Z,980.8
2017-12-17T05:37:00.218Z,980.8
2017-12-17T05:38:02.738Z,980.8
2017-12-17T05:39:05.125Z,980.8
2017-12-17T05:40:07.551Z,980.9
2017-12-17T05:41:09.996Z,980.8
2017-12-17T05:42:12.516Z,980.7
2017-12-17T05:43:14.924Z,980.9
2017-12-17T05:44:17.367Z,980.8
2017-12-17T05:45:19.828Z,980.8
2017-12-17T05:46:22.375Z,980.7
2017-12-17T05:47:24.959Z,980.8
2017-12-17T05:48:27.423Z,980.8
2017-12-17T05:49:29.765Z,980.9
2017-12-17T05:50:32.288Z,980.8
2017-12-17T05:51:34.713Z,980.8
2017-12-17T05:52:37.396Z,980.9
2017-12-17T05:53:39.754Z,980.9
2017-12-17T05:54:42.189Z,980.9
2017-12-17T05:55:44.551Z,980.9
2017-12-17T05:56:46.979Z,980.9
2017-12-17T05:57:49.399Z,980.9
2017-12-17T05:58:51.859Z,981
2017-12-17T05:59:54.294Z,981
2017-12-17T06:00:56.728Z,981
2017-12-17T06:01:59.140Z,981
2017-12-17T06:03:01.593Z,981
2017-12-17T06:04:04.021Z,981
2017-12-17T06:05:06.478Z,981.1
2017-12-17T06:06:08.976Z,981.1
2017-12-17T06:07:11.412Z,981.2
2017-12-17T06:08:14.182Z,981.1
2017-12-17T06:09:16.575Z,981.1
2017-12-17T06:10:19.062Z,981.1
2017-12-17T06:11:21.493Z,981.1
2017-12-17T06:12:23.989Z,981.2
2017-12-17T06:13:26.472Z,981.3
2017-12-17T06:14:28.945Z,981.2
2017-12-17T06:15:31.403Z,981.2
2017-12-17T06:16:33.809Z,981.3
2017-12-17T06:17:36.333Z,981.3
2017-12-17T06:18:38.848Z,981.3
2017-12-17T06:19:41.333Z,981.2
2017-12-17T06:20:43.820Z,981.4
2017-12-17T06:21:46.266Z,981.3
2017-12-17T06:22:49.205Z,981.3
2017-12-17T06:23:51.649Z,981.2
2017-12-17T06:24:54.168Z,981.3
2017-12-17T06:25:56.644Z,981.3
2017-12-17T06:26:59.118Z,981.3
2017-12-17T06:28:02.078Z,981.4
2017-12-17T06:29:04.531Z,981.4
2017-12-17T06:30:07.012Z,981.4
2017-12-17T06:31:09.459Z,981.5
2017-12-17T06:32:11.890Z,981.5
2017-12-17T06:33:14.302Z,981.5
2017-12-17T06:34:16.792Z,981.6
2017-12-17T06:35:19.242Z,981.5
2017-12-17T06:36:21.888Z,981.7
2017-12-17T06:37:24.294Z,981.7
2017-12-17T06:38:26.692Z,981.5
2017-12-17T06:39:29.140Z,981.6
2017-12-17T06:40:31.584Z,981.8
2017-12-17T06:41:34.003Z,981.6
2017-12-17T06:42:36.492Z,981.6
2017-12-17T06:43:38.956Z,981.7
2017-12-17T06:44:41.481Z,981.7
2017-12-17T06:45:43.900Z,981.7
2017-12-17T06:46:46.302Z,981.7
2017-12-17T06:47:48.754Z,981.7
2017-12-17T06:48:51.208Z,981.7
2017-12-17T06:49:53.628Z,981.7
2017-12-17T06:50:56.126Z,981.8
2017-12-17T06:51:58.514Z,981.7
2017-12-17T06:53:00.972Z,981.7
2017-12-17T06:54:03.468Z,981.7
2017-12-17T06:55:06.078Z,981.8
2017-12-17T06:56:08.608Z,981.7
2017-12-17T06:57:11.083Z,981.8
2017-12-17T06:58:13.529Z,981.7
2017-12-17T06:59:16.048Z,981.7
2017-12-17T07:00:18.727Z,981.8
2017-12-17T07:01:21.220Z,981.7
2017-12-17T07:02:23.629Z,981.8
2017-12-17T07:03:26.066Z,981.8
2017-12-17T07:04:28.549Z,981.9
2017-12-17T07:05:31.094Z,981.6
2017-12-17T07:06:33.519Z,981.9
2017-12-17T07:07:35.965Z,981.9
2017-12-17T07:08:38.448Z,981.9
2017-12-17T07:09:40.932Z,981.7
2017-12-17T07:10:43.357Z,981.9
2017-12-17T07:11:45.912Z,982
2017-12-17T07:12:48.641Z,981.9
2017-12-17T07:13:51.082Z,982
2017-12-17T07:14:53.590Z,981.9
2017-12-17T07:15:56.119Z,982.1
2017-12-17T07:16:58.530Z,982
2017-12-17T07:18:01.150Z,982
2017-12-17T07:19:03.589Z,981.8
2017-12-17T07:20:06.172Z,982.1
2017-12-17T07:21:08.635Z,982.1
2017-12-17T07:22:11.104Z,982.1
2017-12-17T07:23:13.538Z,982
2017-12-17T07:24:15.986Z,982
2017-12-17T07:25:18.481Z,982
2017-12-17T07:26:21.014Z,982.1
2017-12-17T07:27:23.929Z,982
2017-12-17T07:28:26.471Z,982
2017-12-17T07:29:28.962Z,982.1
2017-12-17T07:30:31.494Z,982.2
2017-12-17T07:31:33.888Z,982
2017-12-17T07:32:36.315Z,982.1
2017-12-17T07:33:38.696Z,982.1
2017-12-17T07:34:41.081Z,982.1
2017-12-17T07:35:43.567Z,982.2
2017-12-17T07:36:46.051Z,982.2
2017-12-17T07:37:48.524Z,982.1
2017-12-17T07:38:50.989Z,982.2
2017-12-17T07:39:53.414Z,982.2
2017-12-17T07:40:55.934Z,982.1
2017-12-17T07:41:58.452Z,982.4
2017-12-17T07:43:00.971Z,982.3
2017-12-17T07:44:03.430Z,982.4
2017-12-17T07:45:05.955Z,982.2
2017-12-17T07:46:08.425Z,982.2
2017-12-17T07:47:11.044Z,982.1
2017-12-17T07:48:13.652Z,982.1
2017-12-17T07:49:16.181Z,982.1
2017-12-17T07:50:18.654Z,982.2
2017-12-17T07:51:21.123Z,982.2
2017-12-17T07:52:23.588Z,982.2
2017-12-17T07:53:26.081Z,982.3
2017-12-17T07:54:28.497Z,982.4
2017-12-17T07:55:31.039Z,982.4
2017-12-17T07:56:33.643Z,982.3
2017-12-17T07:57:36.273Z,982.4
2017-12-17T07:58:38.706Z,982.4
2017-12-17T07:59:41.178Z,982.4
2017-12-17T08:00:43.746Z,982.4
2017-12-17T08:01:46.263Z,982.4
2017-12-17T08:02:48.852Z,982.4
2017-12-17T08:03:51.665Z,982.4
2017-12-17T08:04:54.133Z,982.4
2017-12-17T08:05:56.570Z,982.4
2017-12-17T08:06:59.170Z,982.4
2017-12-17T08:08:01.687Z,982.4
2017-12-17T08:09:04.133Z,982.4
2017-12-17T08:10:06.571Z,982.5
2017-12-17T08:11:09.143Z,982.5
2017-12-17T08:12:11.890Z,982.5
2017-12-17T08:13:14.425Z,982.5
2017-12-17T08:14:16.867Z,982.6
2017-12-17T08:15:19.349Z,982.6
2017-12-17T08:16:21.934Z,982.7
2017-12-17T08:17:24.503Z,982.7
2017-12-17T08:18:27.021Z,982.5
2017-12-17T08:19:30.651Z,982.7
2017-12-17T08:20:33.166Z,982.7
2017-12-17T08:21:36.578Z,982.7
2017-12-17T08:22:39.096Z,982.7
2017-12-17T08:23:41.662Z,982.7
2017-12-17T08:24:44.076Z,982.7
2017-12-17T08:25:46.720Z,982.8
2017-12-17T08:26:49.136Z,982.8
2017-12-17T08:27:53.160Z,982.7
2017-12-17T08:28:56.271Z,982.8
2017-12-17T08:29:58.681Z,982.8
2017-12-17T08:31:01.555Z,982.8
2017-12-17T08:32:04.022Z,982.8
2017-12-17T08:33:06.454Z,982.8
2017-12-17T08:34:08.885Z,982.8
2017-12-17T08:35:11.381Z,982.9
2017-12-17T08:36:13.911Z,982.9
2017-12-17T08:37:16.417Z,982.9
2017-12-17T08:38:18.877Z,982.9
2017-12-17T08:39:21.483Z,983
2017-12-17T08:40:23.958Z,983
2017-12-17T08:41:26.504Z,983
2017-12-17T08:42:29.759Z,983.1
2017-12-17T08:43:32.438Z,983.1
2017-12-17T08:44:34.959Z,983.1
2017-12-17T08:45:42.955Z,983.1
2017-12-17T08:46:48.607Z,983.1
2017-12-17T08:47:51.253Z,983.1
2017-12-17T08:48:53.899Z,983.1
2017-12-17T08:49:56.437Z,983.2
2017-12-17T08:50:59.001Z,983.2
2017-12-17T08:52:01.515Z,983.2
2017-12-17T08:53:04.017Z,983.2
2017-12-17T08:54:06.513Z,983.2
2017-12-17T08:55:09.232Z,983.2
2017-12-17T08:56:11.834Z,983.2
2017-12-17T08:57:14.728Z,983.2
2017-12-17T08:58:17.273Z,983.3
2017-12-17T08:59:22.009Z,983.2
2017-12-17T09:00:24.800Z,983.2
2017-12-17T09:01:27.434Z,983.2
2017-12-17T09:02:29.879Z,983.3
2017-12-17T09:03:32.513Z,983.2
2017-12-17T09:04:35.079Z,983.3
2017-12-17T09:05:37.755Z,983.1
2017-12-17T09:06:40.299Z,983.3
2017-12-17T09:07:43.286Z,983.3
2017-12-17T09:08:45.816Z,983.3
2017-12-17T09:09:48.506Z,983.2
2017-12-17T09:10:51.295Z,983.3
2017-12-17T09:11:53.824Z,983.3
2017-12-17T09:12:56.489Z,983.3
2017-12-17T09:13:58.982Z,983.3
2017-12-17T09:15:01.826Z,983.4
2017-12-17T09:16:04.287Z,983.3
2017-12-17T09:17:06.705Z,983.4
2017-12-17T09:18:09.206Z,983.4
2017-12-17T09:19:11.872Z,983.4
2017-12-17T09:20:15.041Z,983.3
2017-12-17T09:21:17.481Z,983.3
2017-12-17T09:22:19.978Z,983.4
2017-12-17T09:23:22.414Z,983.3
2017-12-17T09:24:25.054Z,983.4
2017-12-17T09:25:27.545Z,983.4
2017-12-17T09:26:30.050Z,983.5
2017-12-17T09:27:33.896Z,983.5
2017-12-17T09:28:36.390Z,983.5
2017-12-17T09:29:38.886Z,983.5
2017-12-17T09:30:41.351Z,983.5
2017-12-17T09:31:44.000Z,983.6
2017-12-17T09:32:46.408Z,983.6
2017-12-17T09:33:49.579Z,983.6
2017-12-17T09:34:51.992Z,983.5
2017-12-17T09:35:54.598Z,983.5
2017-12-17T09:36:57.926Z,983.6
2017-12-17T09:38:00.462Z,983.6
2017-12-17T09:39:03.001Z,983.7
2017-12-17T09:40:05.537Z,983.6
2017-12-17T09:41:07.958Z,983.7
2017-12-17T09:42:10.597Z,983.7
2017-12-17T09:43:13.102Z,983.7
2017-12-17T09:44:15.563Z,983.7
2017-12-17T09:45:18.068Z,983.7
2017-12-17T09:46:20.577Z,983.8
2017-12-17T09:47:23.085Z,983.8
2017-12-17T09:48:25.622Z,983.8
2017-12-17T09:49:28.512Z,983.7
2017-12-17T09:50:30.980Z,983.8
2017-12-17T09:51:33.493Z,983.6
2017-12-17T09:52:36.046Z,983.7
2017-12-17T09:53:38.553Z,983.7
2017-12-17T09:54:41.175Z,983.7
2017-12-17T09:55:43.605Z,983.7
2017-12-17T09:56:46.098Z,983.7
2017-12-17T09:57:48.846Z,983.6
2017-12-17T09:58:51.334Z,983.6
2017-12-17T09:59:53.764Z,983.7
2017-12-17T10:00:56.406Z,983.7
2017-12-17T10:01:58.858Z,983.6
2017-12-17T10:03:01.432Z,983.7
2017-12-17T10:04:03.902Z,983.6
2017-12-17T10:05:06.326Z,983.7
2017-12-17T10:06:08.857Z,983.5
2017-12-17T10:07:11.579Z,983.7
2017-12-17T10:08:14.125Z,983.8
2017-12-17T10:09:16.573Z,983.7
2017-12-17T10:10:18.952Z,983.7
2017-12-17T10:11:21.415Z,983.7
2017-12-17T10:12:23.860Z,983.7
2017-12-17T10:13:26.365Z,983.6
2017-12-17T10:14:28.860Z,983.5
2017-12-17T10:15:31.298Z,983.7
2017-12-17T10:16:33.732Z,983.7
2017-12-17T10:17:36.172Z,983.7
2017-12-17T10:18:38.649Z,983.8
2017-12-17T10:19:41.105Z,983.7
2017-12-17T10:20:43.569Z,983.7
2017-12-17T10:21:46.152Z,983.7
2017-12-17T10:22:48.569Z,983.6
2017-12-17T10:23:50.986Z,983.6
2017-12-17T10:24:53.604Z,983.7
2017-12-17T10:25:56.109Z,983.7
2017-12-17T10:26:58.495Z,983.6
2017-12-17T10:28:01.332Z,983.7
2017-12-17T10:29:03.844Z,983.7
2017-12-17T10:30:06.355Z,983.7
2017-12-17T10:31:08.780Z,983.7
2017-12-17T10:32:11.279Z,983.7
2017-12-17T10:33:13.713Z,983.7
2017-12-17T10:34:16.177Z,983.7
2017-12-17T10:35:18.756Z,983.7
2017-12-17T10:36:21.194Z,983.8
2017-12-17T10:37:27.000Z,983.8
2017-12-17T10:38:29.539Z,983.8
2017-12-17T10:39:32.146Z,983.9
2017-12-17T10:40:34.631Z,983.8
2017-12-17T10:41:37.104Z,983.8
2017-12-17T10:42:39.985Z,983.8
2017-12-17T10:43:42.590Z,983.8
2017-12-17T10:44:45.058Z,983.9
2017-12-17T10:45:47.514Z,983.8
2017-12-17T10:46:49.932Z,983.8
2017-12-17T10:47:52.461Z,983.8
2017-12-17T10:48:54.897Z,983.8
2017-12-17T10:49:57.339Z,983.8
2017-12-17T10:50:59.812Z,983.8
2017-12-17T10:52:02.202Z,983.9
2017-12-17T10:53:04.705Z,983.8
2017-12-17T10:54:07.150Z,983.9
2017-12-17T10:55:09.730Z,983.8
2017-12-17T10:56:12.277Z,983.9
2017-12-17T10:57:14.781Z,983.9
2017-12-17T10:58:17.343Z,983.9
2017-12-17T10:59:19.801Z,983.9
2017-12-17T11:00:22.317Z,983.9
2017-12-17T11:01:24.754Z,983.9
2017-12-17T11:02:27.210Z,983.9
2017-12-17T11:03:29.644Z,983.9
2017-12-17T11:04:32.209Z,984
2017-12-17T11:05:35.240Z,984
2017-12-17T11:06:38.107Z,984
2017-12-17T11:07:40.673Z,983.9
2017-12-17T11:08:43.233Z,984
2017-12-17T11:09:45.735Z,984
2017-12-17T11:10:48.190Z,984.1
2017-12-17T11:11:50.681Z,984.1
2017-12-17T11:12:53.300Z,984.1
2017-12-17T11:13:55.834Z,984
2017-12-17T11:14:58.262Z,984
2017-12-17T11:16:00.851Z,984.1
2017-12-17T11:17:03.323Z,984.1
2017-12-17T11:18:05.872Z,984.1
2017-12-17T11:19:08.450Z,983.9
2017-12-17T11:20:11.070Z,984.1
2017-12-17T11:21:13.597Z,984.1
2017-12-17T11:22:16.212Z,984.1
2017-12-17T11:23:18.719Z,984.1
2017-12-17T11:24:21.141Z,984.1
2017-12-17T11:25:23.622Z,984
2017-12-17T11:26:26.230Z,984
2017-12-17T11:27:28.772Z,984.1
2017-12-17T11:28:31.293Z,984
2017-12-17T11:29:33.920Z,984
2017-12-17T11:30:36.452Z,984
2017-12-17T11:31:39.598Z,984
2017-12-17T11:32:42.244Z,984.1
2017-12-17T11:33:44.749Z,984.1
2017-12-17T11:34:47.213Z,984.1
2017-12-17T11:35:49.750Z,984
2017-12-17T11:36:52.283Z,984.1
2017-12-17T11:37:54.870Z,984.1
2017-12-17T11:38:57.313Z,984.1
2017-12-17T11:40:00.231Z,984.1
2017-12-17T11:41:02.914Z,984.1
2017-12-17T11:42:05.484Z,984.2
2017-12-17T11:43:08.111Z,983.9
2017-12-17T11:44:10.932Z,984
2017-12-17T11:45:13.359Z,984.1
2017-12-17T11:46:20.886Z,984.1
2017-12-17T11:47:23.590Z,984.2
2017-12-17T11:48:26.131Z,984.2
2017-12-17T11:49:28.746Z,984.1
2017-12-17T11:50:31.329Z,984.1
2017-12-17T11:51:33.845Z,984.2
2017-12-17T11:52:36.453Z,984.2
2017-12-17T11:53:38.901Z,984.3
2017-12-17T11:54:41.452Z,984.2
2017-12-17T11:55:44.098Z,984.3
2017-12-17T11:56:46.735Z,984.3
2017-12-17T11:57:49.525Z,984.3
2017-12-17T11:58:52.040Z,984.2
2017-12-17T11:59:54.609Z,984.3
2017-12-17T12:00:57.053Z,984.3
2017-12-17T12:02:04.368Z,984.2
2017-12-17T12:03:06.967Z,984.3
2017-12-17T12:04:09.550Z,984.2
2017-12-17T12:05:12.119Z,984.3
2017-12-17T12:06:14.684Z,984.3
2017-12-17T12:07:17.227Z,984.3
2017-12-17T12:08:20.374Z,984.3
2017-12-17T12:09:22.988Z,984.1
2017-12-17T12:10:25.560Z,984.3
2017-12-17T12:11:28.141Z,984.3
2017-12-17T12:12:30.774Z,984.3
2017-12-17T12:13:33.429Z,984.3
2017-12-17T12:14:36.098Z,984.3
2017-12-17T12:15:38.567Z,984.3
2017-12-17T12:16:41.204Z,984.4
2017-12-17T12:17:43.861Z,984.3
2017-12-17T12:18:46.457Z,984.4
2017-12-17T12:19:48.948Z,984.4
2017-12-17T12:20:51.448Z,984.4
2017-12-17T12:21:54.098Z,984.3
2017-12-17T12:22:56.626Z,984.4
2017-12-17T12:23:59.239Z,984.3
2017-12-17T12:25:03.126Z,984.3
2017-12-17T12:26:05.641Z,984.4
2017-12-17T12:27:08.098Z,984.2
2017-12-17T12:28:11.932Z,984.2
2017-12-17T12:29:14.693Z,984.3
2017-12-17T12:30:17.198Z,984.3
2017-12-17T12:31:19.670Z,984.3
2017-12-17T12:32:22.322Z,984.2
2017-12-17T12:33:24.867Z,984.2
2017-12-17T12:34:27.455Z,984.2
2017-12-17T12:35:29.966Z,984.3
2017-12-17T12:36:32.464Z,984.2
2017-12-17T12:37:34.887Z,984.2
2017-12-17T12:38:37.388Z,984.2
2017-12-17T12:39:39.963Z,984.2
2017-12-17T12:40:42.736Z,984.2
2017-12-17T12:41:45.352Z,984.2
2017-12-17T12:42:47.854Z,984.2
2017-12-17T12:43:50.405Z,984.2
2017-12-17T12:44:52.930Z,984.2
2017-12-17T12:45:55.499Z,984.2
2017-12-17T12:46:57.977Z,984.2
2017-12-17T12:48:00.452Z,984.1
2017-12-17T12:49:03.060Z,984.1
2017-12-17T12:50:05.686Z,984.2
2017-12-17T12:51:12.874Z,984.1
2017-12-17T12:52:15.399Z,984.2
2017-12-17T12:53:17.910Z,984.1
2017-12-17T12:54:20.388Z,984.2
2017-12-17T12:55:23.092Z,984.2
2017-12-17T12:56:25.607Z,984.2
2017-12-17T12:57:28.097Z,984.1
2017-12-17T12:58:30.722Z,984.2
2017-12-17T12:59:33.340Z,984.2
2017-12-17T13:00:36.104Z,984.2
2017-12-17T13:01:38.714Z,984.2
2017-12-17T13:02:41.277Z,984.2
2017-12-17T13:03:43.797Z,984.2
2017-12-17T13:04:46.369Z,984.2
2017-12-17T13:05:48.824Z,984.2
2017-12-17T13:06:51.355Z,984.3
2017-12-17T13:07:53.903Z,984.3
2017-12-17T13:08:57.218Z,984.3
2017-12-17T13:09:59.957Z,984.2
2017-12-17T13:11:02.521Z,984.3
2017-12-17T13:12:05.066Z,984.3
2017-12-17T13:13:07.866Z,984.2
2017-12-17T13:14:10.608Z,984.3
2017-12-17T13:15:13.265Z,984.2
2017-12-17T13:16:15.873Z,984.3
2017-12-17T13:17:20.248Z,984.3
2017-12-17T13:18:22.998Z,984.3
2017-12-17T13:19:25.682Z,984.1
2017-12-17T13:20:28.286Z,984.3
2017-12-17T13:21:30.814Z,984.2
2017-12-17T13:22:33.515Z,984.3
2017-12-17T13:23:36.081Z,984.3
2017-12-17T13:24:39.293Z,984.2
2017-12-17T13:25:41.977Z,984.2
2017-12-17T13:26:45.047Z,984.3
2017-12-17T13:27:47.678Z,984.2
2017-12-17T13:28:50.256Z,984.3